sensor_id;sensor_type;location;lat;lon;timestamp;P1;durP1;ratioP1;P2;durP2;ratioP2
78772;SDS011;68111;44.728;11.290;2023-07-20T00:02:23;7.03;;;3.45;;
78772;SDS011;68111;44.728;11.290;2023-07-20T00:04:50;9.45;;;3.30;;
78772;SDS011;68111;44.728;11.290;2023-07-20T00:07:17;10.27;;;3.65;;
78772;SDS011;68111;44.728;11.290;2023-07-20T00:09:44;8.65;;;3.30;;
78772;SDS011;68111;44.728;11.290;2023-07-20T00:12:10;7.82;;;3.58;;
78772;SDS011;68111;44.728;11.290;2023-07-20T00:14:37;7.68;;;3.20;;
78772;SDS011;68111;44.728;11.290;2023-07-20T00:17:04;9.18;;;3.40;;
78772;SDS011;68111;44.728;11.290;2023-07-20T00:19:31;8.60;;;3.30;;
78772;SDS011;68111;44.728;11.290;2023-07-20T00:21:58;7.10;;;3.78;;
78772;SDS011;68111;44.728;11.290;2023-07-20T00:24:25;8.25;;;3.70;;
78772;SDS011;68111;44.728;11.290;2023-07-20T00:26:52;9.02;;;3.58;;
78772;SDS011;68111;44.728;11.290;2023-07-20T00:29:19;9.98;;;3.60;;
78772;SDS011;68111;44.728;11.290;2023-07-20T00:31:46;9.57;;;3.85;;
78772;SDS011;68111;44.728;11.290;2023-07-20T00:34:15;8.15;;;3.63;;
78772;SDS011;68111;44.728;11.290;2023-07-20T00:36:42;8.65;;;3.35;;
78772;SDS011;68111;44.728;11.290;2023-07-20T00:39:09;9.68;;;3.80;;
78772;SDS011;68111;44.728;11.290;2023-07-20T00:41:36;7.95;;;3.63;;
78772;SDS011;68111;44.728;11.290;2023-07-20T00:44:03;9.05;;;3.70;;
78772;SDS011;68111;44.728;11.290;2023-07-20T00:46:29;10.48;;;3.97;;
78772;SDS011;68111;44.728;11.290;2023-07-20T00:48:59;10.07;;;3.75;;
78772;SDS011;68111;44.728;11.290;2023-07-20T00:51:27;9.80;;;3.78;;
78772;SDS011;68111;44.728;11.290;2023-07-20T00:53:54;9.43;;;4.03;;
78772;SDS011;68111;44.728;11.290;2023-07-20T00:56:21;9.60;;;3.80;;
78772;SDS011;68111;44.728;11.290;2023-07-20T00:58:49;10.50;;;4.22;;
78772;SDS011;68111;44.728;11.290;2023-07-20T01:01:16;8.63;;;4.03;;
78772;SDS011;68111;44.728;11.290;2023-07-20T01:03:42;12.55;;;4.43;;
78772;SDS011;68111;44.728;11.290;2023-07-20T01:11:23;8.52;;;3.70;;
78772;SDS011;68111;44.728;11.290;2023-07-20T01:14:21;10.18;;;4.18;;
78772;SDS011;68111;44.728;11.290;2023-07-20T01:16:49;10.65;;;3.97;;
78772;SDS011;68111;44.728;11.290;2023-07-20T01:19:18;11.32;;;3.92;;
78772;SDS011;68111;44.728;11.290;2023-07-20T01:21:48;8.55;;;3.55;;
78772;SDS011;68111;44.728;11.290;2023-07-20T01:33:32;11.02;;;4.35;;
78772;SDS011;68111;44.728;11.290;2023-07-20T01:36:00;9.93;;;4.00;;
78772;SDS011;68111;44.728;11.290;2023-07-20T01:38:29;11.32;;;3.97;;
78772;SDS011;68111;44.728;11.290;2023-07-20T01:40:56;12.27;;;4.43;;
78772;SDS011;68111;44.728;11.290;2023-07-20T01:43:24;9.27;;;4.00;;
78772;SDS011;68111;44.728;11.290;2023-07-20T01:45:51;11.30;;;3.95;;
78772;SDS011;68111;44.728;11.290;2023-07-20T01:48:17;11.10;;;4.00;;
78772;SDS011;68111;44.728;11.290;2023-07-20T01:50:44;9.13;;;4.18;;
78772;SDS011;68111;44.728;11.290;2023-07-20T01:53:11;13.80;;;4.65;;
78772;SDS011;68111;44.728;11.290;2023-07-20T01:55:38;10.00;;;4.00;;
78772;SDS011;68111;44.728;11.290;2023-07-20T01:58:05;9.05;;;4.28;;
78772;SDS011;68111;44.728;11.290;2023-07-20T02:00:32;9.85;;;4.13;;
78772;SDS011;68111;44.728;11.290;2023-07-20T02:02:59;10.77;;;4.65;;
78772;SDS011;68111;44.728;11.290;2023-07-20T02:05:26;10.20;;;5.10;;
78772;SDS011;68111;44.728;11.290;2023-07-20T02:08:11;12.07;;;4.65;;
78772;SDS011;68111;44.728;11.290;2023-07-20T02:10:38;10.88;;;4.88;;
78772;SDS011;68111;44.728;11.290;2023-07-20T02:13:05;8.10;;;5.00;;
78772;SDS011;68111;44.728;11.290;2023-07-20T02:15:31;10.38;;;5.13;;
78772;SDS011;68111;44.728;11.290;2023-07-20T02:17:58;12.38;;;5.47;;
78772;SDS011;68111;44.728;11.290;2023-07-20T02:20:25;9.68;;;5.70;;
78772;SDS011;68111;44.728;11.290;2023-07-20T02:22:52;14.13;;;6.05;;
78772;SDS011;68111;44.728;11.290;2023-07-20T02:25:18;14.55;;;6.15;;
78772;SDS011;68111;44.728;11.290;2023-07-20T02:27:45;10.25;;;5.63;;
78772;SDS011;68111;44.728;11.290;2023-07-20T02:30:12;11.48;;;6.00;;
78772;SDS011;68111;44.728;11.290;2023-07-20T02:32:39;13.75;;;6.13;;
78772;SDS011;68111;44.728;11.290;2023-07-20T02:35:07;12.40;;;6.90;;
78772;SDS011;68111;44.728;11.290;2023-07-20T02:37:33;12.85;;;6.28;;
78772;SDS011;68111;44.728;11.290;2023-07-20T02:40:00;12.50;;;6.35;;
78772;SDS011;68111;44.728;11.290;2023-07-20T02:42:27;12.25;;;6.50;;
78772;SDS011;68111;44.728;11.290;2023-07-20T02:44:54;11.32;;;6.28;;
78772;SDS011;68111;44.728;11.290;2023-07-20T02:47:21;10.65;;;6.25;;
78772;SDS011;68111;44.728;11.290;2023-07-20T02:49:48;14.95;;;6.60;;
78772;SDS011;68111;44.728;11.290;2023-07-20T02:52:14;14.32;;;6.30;;
78772;SDS011;68111;44.728;11.290;2023-07-20T02:54:41;11.18;;;6.35;;
78772;SDS011;68111;44.728;11.290;2023-07-20T02:57:08;13.90;;;6.65;;
78772;SDS011;68111;44.728;11.290;2023-07-20T02:59:34;12.48;;;6.70;;
78772;SDS011;68111;44.728;11.290;2023-07-20T03:02:01;10.13;;;6.70;;
78772;SDS011;68111;44.728;11.290;2023-07-20T03:04:28;15.10;;;7.13;;
78772;SDS011;68111;44.728;11.290;2023-07-20T03:06:55;12.55;;;7.20;;
78772;SDS011;68111;44.728;11.290;2023-07-20T03:09:21;12.30;;;6.57;;
78772;SDS011;68111;44.728;11.290;2023-07-20T03:11:49;12.18;;;6.53;;
78772;SDS011;68111;44.728;11.290;2023-07-20T03:14:16;13.07;;;7.03;;
78772;SDS011;68111;44.728;11.290;2023-07-20T03:16:43;16.13;;;6.72;;
78772;SDS011;68111;44.728;11.290;2023-07-20T03:19:12;13.38;;;6.65;;
78772;SDS011;68111;44.728;11.290;2023-07-20T03:21:40;14.50;;;7.13;;
78772;SDS011;68111;44.728;11.290;2023-07-20T03:24:07;13.25;;;7.35;;
78772;SDS011;68111;44.728;11.290;2023-07-20T03:26:35;12.10;;;6.05;;
78772;SDS011;68111;44.728;11.290;2023-07-20T03:29:04;12.52;;;6.57;;
78772;SDS011;68111;44.728;11.290;2023-07-20T03:31:32;13.38;;;5.90;;
78772;SDS011;68111;44.728;11.290;2023-07-20T03:33:59;12.63;;;6.25;;
78772;SDS011;68111;44.728;11.290;2023-07-20T03:36:26;11.85;;;6.60;;
78772;SDS011;68111;44.728;11.290;2023-07-20T03:38:52;13.05;;;6.20;;
78772;SDS011;68111;44.728;11.290;2023-07-20T03:41:19;11.18;;;6.30;;
78772;SDS011;68111;44.728;11.290;2023-07-20T03:43:48;14.77;;;6.80;;
78772;SDS011;68111;44.728;11.290;2023-07-20T03:46:15;10.60;;;5.78;;
78772;SDS011;68111;44.728;11.290;2023-07-20T03:48:42;12.10;;;6.03;;
78772;SDS011;68111;44.728;11.290;2023-07-20T03:51:09;10.27;;;5.15;;
78772;SDS011;68111;44.728;11.290;2023-07-20T03:53:35;11.48;;;5.70;;
78772;SDS011;68111;44.728;11.290;2023-07-20T03:56:02;13.35;;;5.93;;
78772;SDS011;68111;44.728;11.290;2023-07-20T03:58:29;11.07;;;5.65;;
78772;SDS011;68111;44.728;11.290;2023-07-20T04:00:57;10.07;;;5.63;;
78772;SDS011;68111;44.728;11.290;2023-07-20T04:03:25;9.23;;;5.18;;
78772;SDS011;68111;44.728;11.290;2023-07-20T04:05:53;11.43;;;5.68;;
78772;SDS011;68111;44.728;11.290;2023-07-20T04:08:24;16.35;;;6.00;;
78772;SDS011;68111;44.728;11.290;2023-07-20T04:10:51;10.88;;;5.40;;
78772;SDS011;68111;44.728;11.290;2023-07-20T04:13:18;11.63;;;5.55;;
78772;SDS011;68111;44.728;11.290;2023-07-20T04:15:45;12.70;;;5.57;;
78772;SDS011;68111;44.728;11.290;2023-07-20T04:18:12;9.73;;;5.30;;
78772;SDS011;68111;44.728;11.290;2023-07-20T04:20:39;11.60;;;4.95;;
78772;SDS011;68111;44.728;11.290;2023-07-20T04:23:05;14.40;;;5.50;;
78772;SDS011;68111;44.728;11.290;2023-07-20T04:25:32;11.32;;;5.40;;
78772;SDS011;68111;44.728;11.290;2023-07-20T04:28:08;11.45;;;4.82;;
78772;SDS011;68111;44.728;11.290;2023-07-20T04:30:39;11.95;;;4.55;;
78772;SDS011;68111;44.728;11.290;2023-07-20T04:33:07;14.50;;;5.47;;
78772;SDS011;68111;44.728;11.290;2023-07-20T04:35:47;10.20;;;4.68;;
78772;SDS011;68111;44.728;11.290;2023-07-20T04:38:17;11.25;;;5.10;;
78772;SDS011;68111;44.728;11.290;2023-07-20T04:40:49;11.25;;;4.88;;
78772;SDS011;68111;44.728;11.290;2023-07-20T04:43:17;15.73;;;5.13;;
78772;SDS011;68111;44.728;11.290;2023-07-20T04:45:44;15.93;;;5.28;;
78772;SDS011;68111;44.728;11.290;2023-07-20T04:48:13;8.57;;;4.60;;
78772;SDS011;68111;44.728;11.290;2023-07-20T04:51:00;9.98;;;4.53;;
78772;SDS011;68111;44.728;11.290;2023-07-20T04:53:27;12.32;;;4.75;;
78772;SDS011;68111;44.728;11.290;2023-07-20T04:55:54;12.35;;;5.00;;
78772;SDS011;68111;44.728;11.290;2023-07-20T04:58:23;11.07;;;4.55;;
78772;SDS011;68111;44.728;11.290;2023-07-20T05:00:52;11.32;;;4.80;;
78772;SDS011;68111;44.728;11.290;2023-07-20T05:03:20;11.10;;;4.95;;
78772;SDS011;68111;44.728;11.290;2023-07-20T05:05:47;10.38;;;4.68;;
78772;SDS011;68111;44.728;11.290;2023-07-20T05:08:16;10.88;;;4.65;;
78772;SDS011;68111;44.728;11.290;2023-07-20T05:10:43;12.18;;;4.70;;
78772;SDS011;68111;44.728;11.290;2023-07-20T05:13:10;10.00;;;5.07;;
78772;SDS011;68111;44.728;11.290;2023-07-20T05:15:36;11.98;;;4.78;;
78772;SDS011;68111;44.728;11.290;2023-07-20T05:18:04;11.52;;;4.82;;
78772;SDS011;68111;44.728;11.290;2023-07-20T05:20:31;10.75;;;5.28;;
78772;SDS011;68111;44.728;11.290;2023-07-20T05:22:59;9.93;;;5.07;;
78772;SDS011;68111;44.728;11.290;2023-07-20T05:25:27;10.27;;;5.20;;
78772;SDS011;68111;44.728;11.290;2023-07-20T05:27:57;11.55;;;4.95;;
78772;SDS011;68111;44.728;11.290;2023-07-20T05:30:23;10.70;;;4.70;;
78772;SDS011;68111;44.728;11.290;2023-07-20T05:32:50;9.40;;;4.85;;
78772;SDS011;68111;44.728;11.290;2023-07-20T05:35:19;12.02;;;5.00;;
78772;SDS011;68111;44.728;11.290;2023-07-20T05:37:45;12.02;;;5.60;;
78772;SDS011;68111;44.728;11.290;2023-07-20T05:40:12;9.98;;;4.63;;
78772;SDS011;68111;44.728;11.290;2023-07-20T05:42:41;10.48;;;5.63;;
78772;SDS011;68111;44.728;11.290;2023-07-20T05:45:07;10.65;;;5.10;;
78772;SDS011;68111;44.728;11.290;2023-07-20T05:47:35;10.65;;;4.82;;
78772;SDS011;68111;44.728;11.290;2023-07-20T05:50:01;12.23;;;4.80;;
78772;SDS011;68111;44.728;11.290;2023-07-20T05:52:29;11.82;;;4.50;;
78772;SDS011;68111;44.728;11.290;2023-07-20T05:54:56;13.13;;;5.28;;
78772;SDS011;68111;44.728;11.290;2023-07-20T05:57:23;11.93;;;5.55;;
78772;SDS011;68111;44.728;11.290;2023-07-20T05:59:50;13.30;;;5.03;;
78772;SDS011;68111;44.728;11.290;2023-07-20T06:02:17;11.50;;;4.82;;
78772;SDS011;68111;44.728;11.290;2023-07-20T06:04:44;9.88;;;4.57;;
78772;SDS011;68111;44.728;11.290;2023-07-20T06:07:11;8.43;;;4.70;;
78772;SDS011;68111;44.728;11.290;2023-07-20T06:09:38;12.02;;;4.90;;
78772;SDS011;68111;44.728;11.290;2023-07-20T06:12:05;10.63;;;4.50;;
78772;SDS011;68111;44.728;11.290;2023-07-20T06:14:32;10.43;;;4.70;;
78772;SDS011;68111;44.728;11.290;2023-07-20T06:16:58;9.88;;;4.88;;
78772;SDS011;68111;44.728;11.290;2023-07-20T06:19:25;12.60;;;5.30;;
78772;SDS011;68111;44.728;11.290;2023-07-20T06:21:52;12.00;;;4.60;;
78772;SDS011;68111;44.728;11.290;2023-07-20T06:24:19;11.00;;;5.00;;
78772;SDS011;68111;44.728;11.290;2023-07-20T06:26:46;13.25;;;4.78;;
78772;SDS011;68111;44.728;11.290;2023-07-20T06:29:12;12.75;;;5.10;;
78772;SDS011;68111;44.728;11.290;2023-07-20T06:31:39;10.88;;;4.78;;
78772;SDS011;68111;44.728;11.290;2023-07-20T06:34:06;9.50;;;4.65;;
78772;SDS011;68111;44.728;11.290;2023-07-20T06:36:35;11.55;;;6.25;;
78772;SDS011;68111;44.728;11.290;2023-07-20T06:39:02;8.98;;;5.15;;
78772;SDS011;68111;44.728;11.290;2023-07-20T06:41:31;12.03;;;5.13;;
78772;SDS011;68111;44.728;11.290;2023-07-20T06:44:01;10.20;;;4.82;;
78772;SDS011;68111;44.728;11.290;2023-07-20T06:46:28;10.38;;;5.03;;
78772;SDS011;68111;44.728;11.290;2023-07-20T06:48:55;11.10;;;5.05;;
78772;SDS011;68111;44.728;11.290;2023-07-20T06:51:26;9.38;;;5.10;;
78772;SDS011;68111;44.728;11.290;2023-07-20T06:53:53;11.25;;;5.10;;
78772;SDS011;68111;44.728;11.290;2023-07-20T06:56:20;10.95;;;5.43;;
78772;SDS011;68111;44.728;11.290;2023-07-20T06:58:51;9.75;;;4.78;;
78772;SDS011;68111;44.728;11.290;2023-07-20T07:01:17;10.15;;;4.60;;
78772;SDS011;68111;44.728;11.290;2023-07-20T07:03:48;10.73;;;5.10;;
78772;SDS011;68111;44.728;11.290;2023-07-20T07:06:18;8.90;;;4.35;;
78772;SDS011;68111;44.728;11.290;2023-07-20T07:08:45;9.40;;;4.55;;
78772;SDS011;68111;44.728;11.290;2023-07-20T07:11:12;10.50;;;4.90;;
78772;SDS011;68111;44.728;11.290;2023-07-20T07:13:39;10.30;;;4.90;;
78772;SDS011;68111;44.728;11.290;2023-07-20T07:16:06;11.00;;;4.73;;
78772;SDS011;68111;44.728;11.290;2023-07-20T07:18:35;12.77;;;4.93;;
78772;SDS011;68111;44.728;11.290;2023-07-20T07:21:01;10.05;;;5.10;;
78772;SDS011;68111;44.728;11.290;2023-07-20T07:23:29;9.43;;;5.10;;
78772;SDS011;68111;44.728;11.290;2023-07-20T07:25:55;13.55;;;5.18;;
78772;SDS011;68111;44.728;11.290;2023-07-20T07:28:22;11.10;;;5.60;;
78772;SDS011;68111;44.728;11.290;2023-07-20T07:30:49;15.05;;;5.72;;
78772;SDS011;68111;44.728;11.290;2023-07-20T07:33:16;14.57;;;5.70;;
78772;SDS011;68111;44.728;11.290;2023-07-20T07:35:42;12.43;;;5.28;;
78772;SDS011;68111;44.728;11.290;2023-07-20T07:38:09;10.45;;;5.72;;
78772;SDS011;68111;44.728;11.290;2023-07-20T07:40:57;8.90;;;5.60;;
78772;SDS011;68111;44.728;11.290;2023-07-20T07:43:24;12.63;;;5.75;;
78772;SDS011;68111;44.728;11.290;2023-07-20T07:45:53;10.50;;;5.45;;
78772;SDS011;68111;44.728;11.290;2023-07-20T07:48:20;12.40;;;5.93;;
78772;SDS011;68111;44.728;11.290;2023-07-20T07:50:48;9.57;;;5.55;;
78772;SDS011;68111;44.728;11.290;2023-07-20T07:53:16;10.65;;;5.78;;
78772;SDS011;68111;44.728;11.290;2023-07-20T07:55:43;9.95;;;5.63;;
78772;SDS011;68111;44.728;11.290;2023-07-20T07:58:10;12.20;;;5.82;;
78772;SDS011;68111;44.728;11.290;2023-07-20T08:00:37;9.35;;;5.72;;
78772;SDS011;68111;44.728;11.290;2023-07-20T08:03:03;11.75;;;5.78;;
78772;SDS011;68111;44.728;11.290;2023-07-20T08:05:30;13.80;;;5.80;;
78772;SDS011;68111;44.728;11.290;2023-07-20T08:07:57;9.43;;;5.65;;
78772;SDS011;68111;44.728;11.290;2023-07-20T08:10:24;12.48;;;7.82;;
78772;SDS011;68111;44.728;11.290;2023-07-20T08:12:51;13.48;;;6.57;;
78772;SDS011;68111;44.728;11.290;2023-07-20T08:15:18;14.63;;;7.03;;
78772;SDS011;68111;44.728;11.290;2023-07-20T08:17:45;11.65;;;6.57;;
78772;SDS011;68111;44.728;11.290;2023-07-20T08:20:12;12.63;;;6.70;;
78772;SDS011;68111;44.728;11.290;2023-07-20T08:22:39;12.02;;;6.85;;
78772;SDS011;68111;44.728;11.290;2023-07-20T08:25:06;13.15;;;6.57;;
78772;SDS011;68111;44.728;11.290;2023-07-20T08:27:34;12.80;;;6.97;;
78772;SDS011;68111;44.728;11.290;2023-07-20T08:30:02;15.73;;;7.47;;
78772;SDS011;68111;44.728;11.290;2023-07-20T08:32:30;12.23;;;6.43;;
78772;SDS011;68111;44.728;11.290;2023-07-20T08:34:59;15.35;;;7.68;;
78772;SDS011;68111;44.728;11.290;2023-07-20T08:37:25;11.40;;;6.70;;
78772;SDS011;68111;44.728;11.290;2023-07-20T08:39:52;13.27;;;7.10;;
78772;SDS011;68111;44.728;11.290;2023-07-20T08:42:19;15.80;;;7.05;;
78772;SDS011;68111;44.728;11.290;2023-07-20T08:44:47;13.75;;;6.82;;
78772;SDS011;68111;44.728;11.290;2023-07-20T08:47:15;12.27;;;6.95;;
78772;SDS011;68111;44.728;11.290;2023-07-20T08:49:43;13.55;;;7.15;;
78772;SDS011;68111;44.728;11.290;2023-07-20T08:52:10;13.70;;;7.25;;
78772;SDS011;68111;44.728;11.290;2023-07-20T08:54:38;10.35;;;6.88;;
78772;SDS011;68111;44.728;11.290;2023-07-20T08:57:06;12.13;;;7.10;;
78772;SDS011;68111;44.728;11.290;2023-07-20T08:59:34;15.13;;;7.88;;
78772;SDS011;68111;44.728;11.290;2023-07-20T09:02:03;14.77;;;7.10;;
78772;SDS011;68111;44.728;11.290;2023-07-20T09:04:31;13.48;;;7.28;;
78772;SDS011;68111;44.728;11.290;2023-07-20T09:06:58;13.82;;;7.53;;
78772;SDS011;68111;44.728;11.290;2023-07-20T09:09:25;11.60;;;7.57;;
78772;SDS011;68111;44.728;11.290;2023-07-20T09:11:52;15.48;;;7.30;;
78772;SDS011;68111;44.728;11.290;2023-07-20T09:14:19;12.55;;;7.20;;
78772;SDS011;68111;44.728;11.290;2023-07-20T09:16:49;10.15;;;6.97;;
78772;SDS011;68111;44.728;11.290;2023-07-20T09:19:18;12.02;;;7.40;;
78772;SDS011;68111;44.728;11.290;2023-07-20T09:21:49;12.63;;;7.20;;
78772;SDS011;68111;44.728;11.290;2023-07-20T09:24:17;13.70;;;6.75;;
78772;SDS011;68111;44.728;11.290;2023-07-20T09:26:46;13.05;;;7.07;;
78772;SDS011;68111;44.728;11.290;2023-07-20T09:29:20;12.48;;;7.60;;
78772;SDS011;68111;44.728;11.290;2023-07-20T09:31:59;13.55;;;6.72;;
78772;SDS011;68111;44.728;11.290;2023-07-20T09:34:30;12.20;;;7.43;;
78772;SDS011;68111;44.728;11.290;2023-07-20T09:37:01;14.30;;;7.47;;
78772;SDS011;68111;44.728;11.290;2023-07-20T09:39:29;10.90;;;7.05;;
78772;SDS011;68111;44.728;11.290;2023-07-20T09:42:00;10.60;;;7.03;;
78772;SDS011;68111;44.728;11.290;2023-07-20T09:44:31;14.77;;;7.38;;
78772;SDS011;68111;44.728;11.290;2023-07-20T09:47:02;11.60;;;7.35;;
78772;SDS011;68111;44.728;11.290;2023-07-20T09:49:31;11.27;;;7.45;;
78772;SDS011;68111;44.728;11.290;2023-07-20T09:52:18;12.68;;;7.35;;
78772;SDS011;68111;44.728;11.290;2023-07-20T09:54:48;11.35;;;7.25;;
78772;SDS011;68111;44.728;11.290;2023-07-20T09:57:16;11.27;;;7.43;;
78772;SDS011;68111;44.728;11.290;2023-07-20T09:59:44;12.43;;;7.38;;
78772;SDS011;68111;44.728;11.290;2023-07-20T10:02:13;11.98;;;7.38;;
78772;SDS011;68111;44.728;11.290;2023-07-20T10:05:06;13.32;;;7.10;;
78772;SDS011;68111;44.728;11.290;2023-07-20T10:07:35;9.70;;;6.80;;
78772;SDS011;68111;44.728;11.290;2023-07-20T10:10:25;11.38;;;6.53;;
78772;SDS011;68111;44.728;11.290;2023-07-20T10:12:52;11.65;;;7.10;;
78772;SDS011;68111;44.728;11.290;2023-07-20T10:15:20;14.52;;;7.25;;
78772;SDS011;68111;44.728;11.290;2023-07-20T10:18:07;12.38;;;7.40;;
78772;SDS011;68111;44.728;11.290;2023-07-20T10:20:44;14.52;;;7.07;;
78772;SDS011;68111;44.728;11.290;2023-07-20T10:23:15;14.15;;;7.50;;
78772;SDS011;68111;44.728;11.290;2023-07-20T10:25:42;13.20;;;7.45;;
78772;SDS011;68111;44.728;11.290;2023-07-20T10:28:11;13.00;;;7.32;;
78772;SDS011;68111;44.728;11.290;2023-07-20T10:30:39;10.98;;;7.00;;
78772;SDS011;68111;44.728;11.290;2023-07-20T10:33:08;16.50;;;7.75;;
78772;SDS011;68111;44.728;11.290;2023-07-20T10:35:54;13.55;;;7.28;;
78772;SDS011;68111;44.728;11.290;2023-07-20T10:41:18;14.05;;;7.20;;
78772;SDS011;68111;44.728;11.290;2023-07-20T10:43:51;13.38;;;7.40;;
78772;SDS011;68111;44.728;11.290;2023-07-20T10:49:24;12.38;;;7.07;;
78772;SDS011;68111;44.728;11.290;2023-07-20T10:51:57;14.73;;;7.13;;
78772;SDS011;68111;44.728;11.290;2023-07-20T10:56:52;12.50;;;7.22;;
78772;SDS011;68111;44.728;11.290;2023-07-20T10:59:19;13.05;;;6.78;;
78772;SDS011;68111;44.728;11.290;2023-07-20T11:02:07;14.90;;;7.03;;
78772;SDS011;68111;44.728;11.290;2023-07-20T11:04:42;11.52;;;7.25;;
78772;SDS011;68111;44.728;11.290;2023-07-20T11:07:10;13.07;;;7.00;;
78772;SDS011;68111;44.728;11.290;2023-07-20T11:09:41;12.98;;;7.32;;
78772;SDS011;68111;44.728;11.290;2023-07-20T11:12:13;14.70;;;7.30;;
78772;SDS011;68111;44.728;11.290;2023-07-20T11:17:28;11.10;;;6.80;;
78772;SDS011;68111;44.728;11.290;2023-07-20T11:19:57;12.43;;;6.90;;
78772;SDS011;68111;44.728;11.290;2023-07-20T11:22:27;12.23;;;6.60;;
78772;SDS011;68111;44.728;11.290;2023-07-20T11:24:55;11.70;;;6.88;;
78772;SDS011;68111;44.728;11.290;2023-07-20T11:27:22;14.00;;;6.63;;
78772;SDS011;68111;44.728;11.290;2023-07-20T11:29:49;16.63;;;6.82;;
78772;SDS011;68111;44.728;11.290;2023-07-20T11:32:20;12.77;;;6.60;;
78772;SDS011;68111;44.728;11.290;2023-07-20T11:34:48;11.88;;;6.75;;
78772;SDS011;68111;44.728;11.290;2023-07-20T11:37:16;12.98;;;6.93;;
78772;SDS011;68111;44.728;11.290;2023-07-20T11:39:43;12.63;;;6.95;;
78772;SDS011;68111;44.728;11.290;2023-07-20T11:42:11;12.23;;;6.68;;
78772;SDS011;68111;44.728;11.290;2023-07-20T11:44:38;12.27;;;6.40;;
78772;SDS011;68111;44.728;11.290;2023-07-20T11:47:05;10.88;;;6.40;;
78772;SDS011;68111;44.728;11.290;2023-07-20T11:49:38;13.70;;;6.32;;
78772;SDS011;68111;44.728;11.290;2023-07-20T11:52:08;16.75;;;6.95;;
78772;SDS011;68111;44.728;11.290;2023-07-20T11:54:40;13.88;;;7.30;;
78772;SDS011;68111;44.728;11.290;2023-07-20T11:57:16;11.77;;;6.53;;
78772;SDS011;68111;44.728;11.290;2023-07-20T11:59:53;12.15;;;6.50;;
78772;SDS011;68111;44.728;11.290;2023-07-20T12:02:28;15.05;;;6.90;;
78772;SDS011;68111;44.728;11.290;2023-07-20T12:04:55;13.65;;;6.25;;
78772;SDS011;68111;44.728;11.290;2023-07-20T12:07:22;11.90;;;6.13;;
78772;SDS011;68111;44.728;11.290;2023-07-20T12:10:09;11.10;;;5.93;;
78772;SDS011;68111;44.728;11.290;2023-07-20T12:12:38;13.30;;;6.65;;
78772;SDS011;68111;44.728;11.290;2023-07-20T12:17:43;15.57;;;6.50;;
78772;SDS011;68111;44.728;11.290;2023-07-20T12:20:25;13.32;;;5.97;;
78772;SDS011;68111;44.728;11.290;2023-07-20T12:23:09;15.35;;;6.90;;
78772;SDS011;68111;44.728;11.290;2023-07-20T12:25:41;12.35;;;6.35;;
78772;SDS011;68111;44.728;11.290;2023-07-20T12:28:16;12.30;;;6.45;;
78772;SDS011;68111;44.728;11.290;2023-07-20T12:30:44;12.18;;;6.57;;
78772;SDS011;68111;44.728;11.290;2023-07-20T12:33:12;11.45;;;5.95;;
78772;SDS011;68111;44.728;11.290;2023-07-20T12:35:43;15.35;;;6.70;;
78772;SDS011;68111;44.728;11.290;2023-07-20T12:38:09;16.73;;;6.60;;
78772;SDS011;68111;44.728;11.290;2023-07-20T12:40:36;13.93;;;6.47;;
78772;SDS011;68111;44.728;11.290;2023-07-20T12:43:03;14.95;;;7.10;;
78772;SDS011;68111;44.728;11.290;2023-07-20T12:45:31;11.82;;;6.13;;
78772;SDS011;68111;44.728;11.290;2023-07-20T12:47:57;14.93;;;6.50;;
78772;SDS011;68111;44.728;11.290;2023-07-20T12:50:24;9.55;;;5.80;;
78772;SDS011;68111;44.728;11.290;2023-07-20T12:52:51;11.65;;;6.10;;
78772;SDS011;68111;44.728;11.290;2023-07-20T12:55:18;15.63;;;6.63;;
78772;SDS011;68111;44.728;11.290;2023-07-20T12:57:45;13.77;;;6.28;;
78772;SDS011;68111;44.728;11.290;2023-07-20T13:00:13;12.98;;;6.68;;
78772;SDS011;68111;44.728;11.290;2023-07-20T13:02:40;10.68;;;6.05;;
78772;SDS011;68111;44.728;11.290;2023-07-20T13:05:08;14.30;;;6.00;;
78772;SDS011;68111;44.728;11.290;2023-07-20T13:07:36;15.60;;;6.80;;
78772;SDS011;68111;44.728;11.290;2023-07-20T13:10:07;17.55;;;6.82;;
78772;SDS011;68111;44.728;11.290;2023-07-20T13:12:35;15.30;;;6.63;;
78772;SDS011;68111;44.728;11.290;2023-07-20T13:15:02;11.55;;;6.28;;
78772;SDS011;68111;44.728;11.290;2023-07-20T13:20:03;14.27;;;6.53;;
78772;SDS011;68111;44.728;11.290;2023-07-20T13:22:31;13.52;;;6.30;;
78772;SDS011;68111;44.728;11.290;2023-07-20T13:24:58;14.25;;;6.07;;
78772;SDS011;68111;44.728;11.290;2023-07-20T13:27:24;14.13;;;6.93;;
78772;SDS011;68111;44.728;11.290;2023-07-20T13:29:54;16.38;;;6.68;;
78772;SDS011;68111;44.728;11.290;2023-07-20T13:32:23;12.00;;;6.10;;
78772;SDS011;68111;44.728;11.290;2023-07-20T13:34:50;12.95;;;6.20;;
78772;SDS011;68111;44.728;11.290;2023-07-20T13:37:17;13.48;;;6.00;;
78772;SDS011;68111;44.728;11.290;2023-07-20T13:39:44;14.30;;;6.25;;
78772;SDS011;68111;44.728;11.290;2023-07-20T13:42:11;11.55;;;5.90;;
78772;SDS011;68111;44.728;11.290;2023-07-20T13:44:39;14.55;;;5.78;;
78772;SDS011;68111;44.728;11.290;2023-07-20T13:47:06;14.57;;;6.50;;
78772;SDS011;68111;44.728;11.290;2023-07-20T13:49:36;12.43;;;6.10;;
78772;SDS011;68111;44.728;11.290;2023-07-20T13:52:13;13.13;;;6.32;;
78772;SDS011;68111;44.728;11.290;2023-07-20T13:54:43;17.73;;;6.55;;
78772;SDS011;68111;44.728;11.290;2023-07-20T13:57:13;13.52;;;6.65;;
78772;SDS011;68111;44.728;11.290;2023-07-20T13:59:41;12.05;;;6.30;;
78772;SDS011;68111;44.728;11.290;2023-07-20T14:02:08;13.27;;;6.38;;
78772;SDS011;68111;44.728;11.290;2023-07-20T14:04:38;15.13;;;5.97;;
78772;SDS011;68111;44.728;11.290;2023-07-20T14:07:05;12.50;;;6.20;;
78772;SDS011;68111;44.728;11.290;2023-07-20T14:09:32;16.48;;;6.80;;
78772;SDS011;68111;44.728;11.290;2023-07-20T14:11:59;14.00;;;5.85;;
78772;SDS011;68111;44.728;11.290;2023-07-20T14:14:29;12.23;;;6.50;;
78772;SDS011;68111;44.728;11.290;2023-07-20T14:16:55;15.23;;;6.38;;
78772;SDS011;68111;44.728;11.290;2023-07-20T14:19:22;11.40;;;6.20;;
78772;SDS011;68111;44.728;11.290;2023-07-20T14:21:50;12.23;;;6.10;;
78772;SDS011;68111;44.728;11.290;2023-07-20T14:24:16;11.07;;;5.70;;
78772;SDS011;68111;44.728;11.290;2023-07-20T14:26:45;15.23;;;5.90;;
78772;SDS011;68111;44.728;11.290;2023-07-20T14:29:13;12.32;;;5.80;;
78772;SDS011;68111;44.728;11.290;2023-07-20T14:31:41;14.20;;;6.10;;
78772;SDS011;68111;44.728;11.290;2023-07-20T14:34:08;13.25;;;6.20;;
78772;SDS011;68111;44.728;11.290;2023-07-20T14:36:35;15.38;;;6.25;;
78772;SDS011;68111;44.728;11.290;2023-07-20T14:39:03;15.73;;;6.40;;
78772;SDS011;68111;44.728;11.290;2023-07-20T14:41:30;10.95;;;5.82;;
78772;SDS011;68111;44.728;11.290;2023-07-20T14:43:56;12.15;;;5.97;;
78772;SDS011;68111;44.728;11.290;2023-07-20T14:46:24;11.20;;;5.65;;
78772;SDS011;68111;44.728;11.290;2023-07-20T14:48:51;12.85;;;6.05;;
78772;SDS011;68111;44.728;11.290;2023-07-20T14:51:18;12.45;;;5.78;;
78772;SDS011;68111;44.728;11.290;2023-07-20T14:53:46;15.98;;;6.30;;
78772;SDS011;68111;44.728;11.290;2023-07-20T14:56:13;11.55;;;5.50;;
78772;SDS011;68111;44.728;11.290;2023-07-20T14:58:39;19.33;;;6.32;;
78772;SDS011;68111;44.728;11.290;2023-07-20T15:01:06;10.85;;;5.55;;
78772;SDS011;68111;44.728;11.290;2023-07-20T15:03:33;12.20;;;5.80;;